createdAt,value
2023-05-21T00:00:00.802Z,478.2308
2023-05-21T00:01:02.649Z,484.6154
2023-05-21T00:02:04.474Z,448.2308
2023-05-21T00:03:06.445Z,446.0769
2023-05-21T00:04:08.165Z,473.6154
2023-05-21T00:05:11.082Z,478.3846
2023-05-21T00:06:11.866Z,481.8462
2023-05-21T00:07:13.642Z,484.6923
2023-05-21T00:08:15.564Z,484.3077
2023-05-21T00:09:17.322Z,483.6154
2023-05-21T00:10:19.163Z,482.3077
2023-05-21T00:11:21.008Z,482.6154
2023-05-21T00:12:22.829Z,483.0000
2023-05-21T00:13:24.654Z,483.6154
2023-05-21T00:14:26.481Z,481.6154
2023-05-21T00:15:28.333Z,479.6923
2023-05-21T00:16:30.274Z,469.0000
2023-05-21T00:17:32.029Z,478.0769
2023-05-21T00:18:33.838Z,441.4615
2023-05-21T00:19:35.642Z,467.1538
2023-05-21T00:20:37.477Z,473.7692
2023-05-21T00:21:39.323Z,461.3077
2023-05-21T00:22:41.184Z,479.6154
2023-05-21T00:23:42.994Z,481.2308
2023-05-21T00:24:44.847Z,480.5385
2023-05-21T00:25:46.650Z,481.2308
2023-05-21T00:26:48.516Z,483.3077
2023-05-21T00:27:50.320Z,484.4615
2023-05-21T00:28:52.170Z,485.4615
2023-05-21T00:29:54.028Z,485.9231
2023-05-21T00:30:55.832Z,484.0769
2023-05-21T00:31:57.713Z,481.2308
2023-05-21T00:32:59.510Z,483.7692
2023-05-21T00:34:01.323Z,473.1538
2023-05-21T00:35:03.175Z,459.5385
2023-05-21T00:36:05.024Z,479.4615
2023-05-21T00:37:06.836Z,448.6154
2023-05-21T00:38:08.695Z,475.8462
2023-05-21T00:39:10.486Z,461.8462
2023-05-21T00:40:12.312Z,479.3846
2023-05-21T00:41:14.163Z,484.1538
2023-05-21T00:42:16.048Z,484.3846
2023-05-21T00:43:17.819Z,483.6923
2023-05-21T00:44:19.723Z,484.8462
2023-05-21T00:45:21.493Z,482.3077
2023-05-21T00:46:23.357Z,481.9231
2023-05-21T00:47:25.190Z,480.3077
2023-05-21T00:48:27.006Z,480.0000
2023-05-21T00:49:28.804Z,480.7692
2023-05-21T00:50:30.634Z,485.5385
2023-05-21T00:51:32.481Z,479.0000
2023-05-21T00:52:34.323Z,472.1538
2023-05-21T00:53:36.136Z,468.9231
2023-05-21T00:54:37.971Z,466.0769
2023-05-21T00:55:39.792Z,459.1538
2023-05-21T00:56:41.658Z,468.3077
2023-05-21T00:57:43.472Z,481.4615
2023-05-21T00:58:45.293Z,481.7692
2023-05-21T00:59:47.149Z,484.8462
2023-05-21T01:00:48.973Z,488.1538
2023-05-21T01:01:50.809Z,488.1538
2023-05-21T01:02:52.691Z,486.5385
2023-05-21T01:03:54.468Z,489.3846
2023-05-21T01:04:56.328Z,489.5385
2023-05-21T01:05:58.114Z,491.2308
2023-05-21T01:06:59.963Z,489.9231
2023-05-21T01:08:01.828Z,489.2308
2023-05-21T01:09:04.957Z,485.0000
2023-05-21T01:10:05.553Z,475.0000
2023-05-21T01:11:07.304Z,472.1538
2023-05-21T01:12:09.128Z,453.2308
2023-05-21T01:13:10.988Z,458.8462
2023-05-21T01:14:12.874Z,476.9231
2023-05-21T01:15:14.641Z,482.4615
2023-05-21T01:16:16.523Z,480.1538
2023-05-21T01:17:18.380Z,481.6154
2023-05-21T01:18:20.203Z,484.3077
2023-05-21T01:19:22.045Z,486.0769
2023-05-21T01:20:23.836Z,484.3846
2023-05-21T01:21:25.654Z,486.2308
2023-05-21T01:22:27.508Z,485.9231
2023-05-21T01:23:29.377Z,486.4615
2023-05-21T01:24:31.167Z,486.4615
2023-05-21T01:25:33.007Z,486.1538
2023-05-21T01:26:34.847Z,487.0769
2023-05-21T01:27:36.683Z,473.3077
2023-05-21T01:28:38.539Z,471.2308
2023-05-21T01:29:40.338Z,478.0000
2023-05-21T01:30:42.186Z,460.3846
2023-05-21T01:31:44.022Z,480.9231
2023-05-21T01:32:45.878Z,483.1538
2023-05-21T01:33:47.738Z,483.6923
2023-05-21T01:34:49.555Z,485.6923
2023-05-21T01:35:51.378Z,488.5385
2023-05-21T01:36:53.190Z,491.0769
2023-05-21T01:37:55.036Z,493.5385
2023-05-21T01:38:56.869Z,484.5385
2023-05-21T01:39:58.702Z,485.3846
2023-05-21T01:41:00.560Z,486.7692
2023-05-21T01:42:02.377Z,489.4615
2023-05-21T01:43:04.189Z,491.6154
2023-05-21T01:44:06.069Z,488.3846
2023-05-21T01:45:07.873Z,478.3077
2023-05-21T01:46:09.709Z,487.5385
2023-05-21T01:47:11.586Z,481.6923
2023-05-21T01:48:13.413Z,462.1538
2023-05-21T01:49:15.208Z,493.1538
2023-05-21T01:50:17.039Z,480.0000
2023-05-21T01:51:18.888Z,489.7692
2023-05-21T01:52:20.712Z,491.6923
2023-05-21T01:53:22.548Z,492.3846
2023-05-21T01:54:24.412Z,491.6154
2023-05-21T01:55:26.233Z,490.6923
2023-05-21T01:56:28.039Z,491.2308
2023-05-21T01:57:29.942Z,492.0000
2023-05-21T01:58:31.723Z,492.7692
2023-05-21T01:59:33.547Z,492.6923
2023-05-21T02:00:35.396Z,491.8462
2023-05-21T02:01:37.301Z,494.7692
2023-05-21T02:02:39.084Z,484.4615
2023-05-21T02:03:41.084Z,478.9231
2023-05-21T02:04:42.726Z,476.4615
2023-05-21T02:05:44.555Z,470.7692
2023-05-21T02:06:46.396Z,475.0769
2023-05-21T02:07:48.221Z,487.8462
2023-05-21T02:08:50.042Z,488.6923
2023-05-21T02:09:51.895Z,488.7692
2023-05-21T02:11:01.288Z,493.1538
2023-05-21T02:11:55.555Z,503.0000
2023-05-21T02:12:57.408Z,498.6154
2023-05-21T02:13:59.228Z,495.1538
2023-05-21T02:15:01.086Z,493.5385
2023-05-21T02:16:02.934Z,492.2308
2023-05-21T02:17:04.781Z,491.1538
2023-05-21T02:18:06.623Z,490.1538
2023-05-21T02:19:08.451Z,487.9231
2023-05-21T02:20:10.276Z,486.0000
2023-05-21T02:21:12.089Z,463.3077
2023-05-21T02:22:13.969Z,480.9231
2023-05-21T02:23:15.790Z,468.9231
2023-05-21T02:24:17.608Z,465.8462
2023-05-21T02:25:19.462Z,483.4615
2023-05-21T02:26:21.257Z,478.0769
2023-05-21T02:27:23.108Z,483.6923
2023-05-21T02:28:24.973Z,486.3846
2023-05-21T02:29:26.812Z,485.6154
2023-05-21T02:30:28.688Z,486.3846
2023-05-21T02:31:30.428Z,486.1538
2023-05-21T02:32:32.343Z,486.3846
2023-05-21T02:33:34.169Z,484.3846
2023-05-21T02:34:35.942Z,487.2308
2023-05-21T02:35:37.990Z,485.9231
2023-05-21T02:36:39.635Z,485.3077
2023-05-21T02:37:41.454Z,468.6154
2023-05-21T02:38:43.293Z,472.3846
2023-05-21T02:39:45.115Z,457.7692
2023-05-21T02:40:54.434Z,496.6923
2023-05-21T02:41:48.774Z,478.3333
2023-05-21T02:42:50.599Z,474.8462
2023-05-21T02:43:52.470Z,474.9231
2023-05-21T02:44:54.279Z,479.6923
2023-05-21T02:45:56.146Z,482.8462
2023-05-21T02:46:57.927Z,485.2308
2023-05-21T02:47:59.863Z,485.0769
2023-05-21T02:49:01.609Z,484.1538
2023-05-21T02:50:03.442Z,482.9231
2023-05-21T02:51:05.259Z,481.6154
2023-05-21T02:52:07.145Z,478.8462
2023-05-21T02:53:08.936Z,478.6154
2023-05-21T02:54:10.756Z,479.1538
2023-05-21T02:55:12.624Z,465.0000
2023-05-21T02:56:14.452Z,481.9231
2023-05-21T02:57:16.323Z,449.6923
2023-05-21T02:58:18.091Z,461.2308
2023-05-21T02:59:19.954Z,458.5385
2023-05-21T03:00:21.762Z,468.6154
2023-05-21T03:01:23.714Z,479.8462
2023-05-21T03:02:25.558Z,481.6923
2023-05-21T03:03:27.460Z,483.3077
2023-05-21T03:04:29.113Z,483.0000
2023-05-21T03:05:30.938Z,488.7692
2023-05-21T03:06:32.775Z,492.3077
2023-05-21T03:07:34.635Z,490.9231
2023-05-21T03:08:36.477Z,490.0000
2023-05-21T03:09:38.289Z,489.7692
2023-05-21T03:10:40.126Z,488.6154
2023-05-21T03:11:41.989Z,490.6923
2023-05-21T03:12:43.776Z,478.4615
2023-05-21T03:13:45.653Z,479.3077
2023-05-21T03:14:47.464Z,480.2308
2023-05-21T03:15:49.290Z,457.6923
2023-05-21T03:16:51.152Z,486.0000
2023-05-21T03:17:53.004Z,480.4615
2023-05-21T03:18:54.825Z,487.0000
2023-05-21T03:19:56.653Z,490.7692
2023-05-21T03:20:58.474Z,490.6923
2023-05-21T03:22:00.298Z,490.3846
2023-05-21T03:23:02.138Z,490.8462
2023-05-21T03:24:03.972Z,491.6923
2023-05-21T03:25:05.798Z,491.7692
2023-05-21T03:26:07.626Z,494.5385
2023-05-21T03:27:09.472Z,497.1538
2023-05-21T03:28:11.302Z,495.8462
2023-05-21T03:29:13.203Z,498.0769
2023-05-21T03:30:15.056Z,487.5385
2023-05-21T03:31:16.885Z,492.5385
2023-05-21T03:32:18.771Z,459.1538
2023-05-21T03:33:20.546Z,486.7692
2023-05-21T03:34:22.371Z,477.1538
2023-05-21T03:35:24.201Z,500.0769
2023-05-21T03:36:26.047Z,492.2308
2023-05-21T03:37:27.883Z,493.0000
2023-05-21T03:38:29.708Z,495.0769
2023-05-21T03:39:31.541Z,499.5385
2023-05-21T03:40:33.378Z,504.6154
2023-05-21T03:41:35.227Z,502.3077
2023-05-21T03:42:37.061Z,502.6923
2023-05-21T03:43:46.413Z,511.6154
2023-05-21T03:44:40.746Z,520.5000
2023-05-21T03:45:44.272Z,516.8461
2023-05-21T03:46:44.414Z,513.5385
2023-05-21T03:47:46.266Z,495.8462
2023-05-21T03:48:48.066Z,485.3077
2023-05-21T03:49:49.917Z,473.8462
2023-05-21T03:50:51.788Z,486.6923
2023-05-21T03:51:53.576Z,475.1538
2023-05-21T03:52:55.407Z,497.9231
2023-05-21T03:53:57.256Z,500.4615
2023-05-21T03:54:59.096Z,501.5385
2023-05-21T03:56:00.931Z,500.3077
2023-05-21T03:57:02.800Z,505.0000
2023-05-21T03:58:04.611Z,506.7692
2023-05-21T03:59:06.437Z,506.4615
2023-05-21T04:00:08.295Z,506.8462
2023-05-21T04:01:10.119Z,506.4615
2023-05-21T04:02:11.977Z,504.4615
2023-05-21T04:03:13.846Z,502.3846
2023-05-21T04:04:15.730Z,498.8462
2023-05-21T04:05:17.461Z,490.6923
2023-05-21T04:06:19.314Z,489.3846
2023-05-21T04:07:21.128Z,473.3846
2023-05-21T04:08:23.002Z,491.0000
2023-05-21T04:09:24.825Z,467.6154
2023-05-21T04:10:26.640Z,486.5385
2023-05-21T04:11:28.487Z,487.3077
2023-05-21T04:12:30.306Z,489.1538
2023-05-21T04:13:32.146Z,495.0000
2023-05-21T04:14:34.015Z,495.3846
2023-05-21T04:15:36.132Z,493.7692
2023-05-21T04:16:37.917Z,495.6923
2023-05-21T04:17:39.556Z,496.0769
2023-05-21T04:18:42.450Z,494.3846
2023-05-21T04:19:43.163Z,496.6154
2023-05-21T04:20:44.999Z,496.8462
2023-05-21T04:21:46.829Z,495.9231
2023-05-21T04:22:48.669Z,489.7692
2023-05-21T04:23:50.489Z,471.4615
2023-05-21T04:24:52.337Z,489.3077
2023-05-21T04:25:54.174Z,451.4615
2023-05-21T04:26:56.009Z,482.0000
2023-05-21T04:27:57.858Z,472.6154
2023-05-21T04:28:59.682Z,489.2308
2023-05-21T04:30:01.511Z,487.8462
2023-05-21T04:31:03.388Z,490.0000
2023-05-21T04:32:05.186Z,494.6923
2023-05-21T04:33:07.043Z,494.1538
2023-05-21T04:34:08.842Z,495.3077
2023-05-21T04:35:10.664Z,493.6154
2023-05-21T04:36:12.512Z,493.2308
2023-05-21T04:37:14.316Z,490.4615
2023-05-21T04:38:16.150Z,488.7692
2023-05-21T04:39:17.986Z,490.0000
2023-05-21T04:40:19.821Z,485.4615
2023-05-21T04:41:21.649Z,478.7692
2023-05-21T04:42:23.471Z,455.6154
2023-05-21T04:43:25.330Z,475.7692
2023-05-21T04:44:27.179Z,457.3077
2023-05-21T04:45:28.985Z,484.0769
2023-05-21T04:46:40.295Z,497.3077
2023-05-21T04:47:31.340Z,507.9091
2023-05-21T04:48:32.897Z,500.3846
2023-05-21T04:49:34.488Z,498.3846
2023-05-21T04:50:36.018Z,493.0769
2023-05-21T04:51:37.562Z,494.3846
2023-05-21T04:52:39.160Z,492.5385
2023-05-21T04:53:40.685Z,493.2308
2023-05-21T04:54:42.238Z,492.5385
2023-05-21T04:55:43.793Z,490.6923
2023-05-21T04:56:45.365Z,489.4615
2023-05-21T04:57:46.924Z,486.4615
2023-05-21T04:58:48.487Z,478.2308
2023-05-21T04:59:50.055Z,491.2308
2023-05-21T05:00:51.859Z,464.9231
2023-05-21T05:01:53.568Z,477.5385
2023-05-21T05:02:55.489Z,461.2308
2023-05-21T05:03:57.412Z,479.8462
2023-05-21T05:04:59.105Z,479.0000
2023-05-21T05:06:00.929Z,480.2308
2023-05-21T05:07:02.765Z,482.6923
2023-05-21T05:08:04.576Z,485.5385
2023-05-21T05:09:06.419Z,484.6154
2023-05-21T05:10:08.260Z,484.1538
2023-05-21T05:11:10.075Z,487.0769
2023-05-21T05:12:11.907Z,488.1538
2023-05-21T05:13:13.776Z,485.9231
2023-05-21T05:14:15.568Z,490.1538
2023-05-21T05:15:17.445Z,491.0769
2023-05-21T05:16:19.292Z,481.5385
2023-05-21T05:17:21.084Z,484.5385
2023-05-21T05:18:22.952Z,478.0000
2023-05-21T05:19:24.819Z,469.0769
2023-05-21T05:20:26.605Z,478.9231
2023-05-21T05:21:28.432Z,485.6923
2023-05-21T05:22:30.254Z,492.0769
2023-05-21T05:23:32.102Z,491.0000
2023-05-21T05:24:33.948Z,491.5385
2023-05-21T05:25:35.983Z,490.0769
2023-05-21T05:26:37.625Z,491.3077
2023-05-21T05:27:39.442Z,492.3846
2023-05-21T05:28:41.259Z,495.6154
2023-05-21T05:29:43.091Z,496.0000
2023-05-21T05:30:44.989Z,493.6154
2023-05-21T05:31:46.769Z,494.0000
2023-05-21T05:32:48.632Z,495.6154
2023-05-21T05:33:50.421Z,486.5385
2023-05-21T05:34:52.277Z,478.0000
2023-05-21T05:35:54.099Z,488.2308
2023-05-21T05:36:55.933Z,453.6923
2023-05-21T05:37:57.749Z,495.3077
2023-05-21T05:38:59.585Z,482.6154
2023-05-21T05:40:01.416Z,491.3077
2023-05-21T05:41:11.347Z,497.0000
2023-05-21T05:42:05.101Z,510.8333
2023-05-21T05:43:06.941Z,499.4615
2023-05-21T05:44:10.820Z,496.5385
2023-05-21T05:45:10.580Z,495.7692
2023-05-21T05:46:12.484Z,494.7692
2023-05-21T05:47:14.277Z,495.6923
2023-05-21T05:48:16.094Z,494.6923
2023-05-21T05:49:25.441Z,498.1538
2023-05-21T05:50:19.743Z,502.2500
2023-05-21T05:51:21.647Z,493.2308
2023-05-21T05:52:23.430Z,487.8462
2023-05-21T05:53:25.265Z,466.8462
2023-05-21T05:54:27.096Z,469.5385
2023-05-21T05:55:28.921Z,464.9231
2023-05-21T05:56:30.774Z,463.6923
2023-05-21T05:57:32.579Z,478.3846
2023-05-21T05:58:34.432Z,479.3077
2023-05-21T05:59:36.254Z,483.7692
2023-05-21T06:00:38.114Z,486.4615
2023-05-21T06:01:39.961Z,489.4615
2023-05-21T06:02:41.792Z,491.0769
2023-05-21T06:03:43.731Z,489.5385
2023-05-21T06:04:45.450Z,488.3077
2023-05-21T06:05:47.319Z,487.8462
2023-05-21T06:06:49.122Z,486.6154
2023-05-21T06:07:50.964Z,488.8462
2023-05-21T06:08:52.785Z,487.9231
2023-05-21T06:09:54.599Z,480.8462
2023-05-21T06:10:56.449Z,468.3846
2023-05-21T06:11:58.269Z,480.2308
2023-05-21T06:13:00.135Z,460.6923
2023-05-21T06:14:01.929Z,453.9231
2023-05-21T06:15:03.762Z,482.1538
2023-05-21T06:16:05.629Z,481.5385
2023-05-21T06:17:07.452Z,479.7692
2023-05-21T06:18:09.324Z,482.8462
2023-05-21T06:19:11.185Z,485.1538
2023-05-21T06:20:12.933Z,484.0769
2023-05-21T06:21:14.779Z,482.0000
2023-05-21T06:22:16.591Z,481.3846
2023-05-21T06:23:18.438Z,481.6154
2023-05-21T06:24:20.272Z,481.3077
2023-05-21T06:25:22.139Z,480.8462
2023-05-21T06:26:23.953Z,482.4615
2023-05-21T06:27:25.858Z,473.6154
2023-05-21T06:28:27.586Z,469.7692
2023-05-21T06:29:29.447Z,465.2308
2023-05-21T06:30:31.273Z,458.5385
2023-05-21T06:31:33.175Z,464.2308
2023-05-21T06:32:34.975Z,456.7692
2023-05-21T06:33:36.880Z,481.2308
2023-05-21T06:34:38.615Z,479.7692
2023-05-21T06:35:40.456Z,478.7692
2023-05-21T06:36:42.265Z,478.0769
2023-05-21T06:37:44.100Z,478.3077
2023-05-21T06:38:45.936Z,481.3077
2023-05-21T06:39:47.780Z,483.8462
2023-05-21T06:40:49.605Z,488.1538
2023-05-21T06:41:51.451Z,488.2308
2023-05-21T06:42:53.278Z,488.7692
2023-05-21T06:43:55.094Z,491.1538
2023-05-21T06:44:56.946Z,483.4615
2023-05-21T06:45:58.811Z,489.0769
2023-05-21T06:47:00.607Z,472.0769
2023-05-21T06:48:02.503Z,455.9231
2023-05-21T06:49:04.274Z,493.5385
2023-05-21T06:50:06.094Z,474.6923
2023-05-21T06:51:07.946Z,495.7692
2023-05-21T06:52:17.298Z,503.6923
2023-05-21T06:53:11.624Z,508.3333
2023-05-21T06:54:13.440Z,504.8462
2023-05-21T06:55:15.276Z,504.6154
2023-05-21T06:56:17.135Z,504.9231
2023-05-21T06:57:18.950Z,504.3846
2023-05-21T06:58:20.798Z,502.2308
2023-05-21T06:59:22.654Z,500.0000
2023-05-21T07:00:24.448Z,498.6154
2023-05-21T07:01:26.334Z,499.0769
2023-05-21T07:02:28.186Z,498.6923
2023-05-21T07:03:30.072Z,491.2308
2023-05-21T07:04:31.794Z,488.3846
2023-05-21T07:05:33.631Z,459.3846
2023-05-21T07:06:35.460Z,468.5385
2023-05-21T07:07:37.275Z,465.3077
2023-05-21T07:08:39.138Z,495.8462
2023-05-21T07:09:40.943Z,487.4615
2023-05-21T07:10:42.804Z,490.0000
2023-05-21T07:11:44.627Z,490.1538
2023-05-21T07:12:46.480Z,491.1538
2023-05-21T07:13:48.286Z,493.1538
2023-05-21T07:14:50.114Z,492.0000
2023-05-21T07:15:51.964Z,492.2308
2023-05-21T07:16:53.849Z,491.8462
2023-05-21T07:17:55.628Z,496.0769
2023-05-21T07:18:57.514Z,492.6923
2023-05-21T07:19:59.269Z,492.6923
2023-05-21T07:21:01.107Z,492.8462
2023-05-21T07:22:02.966Z,474.1538
2023-05-21T07:23:04.785Z,478.0000
2023-05-21T07:24:06.629Z,470.8462
2023-05-21T07:25:08.441Z,467.0000
2023-05-21T07:26:10.287Z,474.3077
2023-05-21T07:27:24.855Z,485.1538
2023-05-21T07:28:14.943Z,493.3077
2023-05-21T07:29:15.789Z,491.3846
2023-05-21T07:30:17.618Z,491.9231
2023-05-21T07:31:19.477Z,491.5385
2023-05-21T07:32:21.389Z,490.6923
2023-05-21T07:33:23.167Z,491.6923
2023-05-21T07:34:25.038Z,490.1538
2023-05-21T07:35:26.812Z,491.6154
2023-05-21T07:36:28.641Z,492.3077
2023-05-21T07:37:30.547Z,490.4615
2023-05-21T07:38:32.300Z,492.4615
2023-05-21T07:39:34.160Z,476.9231
2023-05-21T07:40:35.995Z,476.4615
2023-05-21T07:41:37.827Z,471.0769
2023-05-21T07:42:39.654Z,452.1538
2023-05-21T07:43:41.489Z,470.6923
2023-05-21T07:44:43.514Z,482.9231
2023-05-21T07:45:45.172Z,488.7692
2023-05-21T07:46:47.058Z,488.0000
2023-05-21T07:47:48.874Z,488.3846
2023-05-21T07:48:50.675Z,488.3077
2023-05-21T07:49:52.489Z,487.5385
2023-05-21T07:50:54.312Z,489.2308
2023-05-21T07:51:56.171Z,489.7692
2023-05-21T07:52:58.040Z,489.0000
2023-05-21T07:54:07.327Z,489.9231
2023-05-21T07:55:01.688Z,494.5833
2023-05-21T07:56:03.492Z,488.3846
2023-05-21T07:57:05.366Z,478.2308
2023-05-21T07:58:07.175Z,466.6154
2023-05-21T07:59:08.988Z,450.0769
2023-05-21T08:00:10.850Z,476.4615
2023-05-21T08:01:12.648Z,456.4615
2023-05-21T08:02:14.487Z,474.2308
2023-05-21T08:03:16.570Z,476.8462
2023-05-21T08:04:18.226Z,476.5385
2023-05-21T08:05:19.984Z,477.8462
2023-05-21T08:06:21.805Z,481.3846
2023-05-21T08:07:23.651Z,483.9231
2023-05-21T08:08:25.474Z,483.2308
2023-05-21T08:09:27.321Z,482.4615
2023-05-21T08:10:29.157Z,480.1538
2023-05-21T08:11:30.969Z,481.2308
2023-05-21T08:12:32.815Z,481.6923
2023-05-21T08:13:34.622Z,481.6923
2023-05-21T08:14:36.471Z,472.6923
2023-05-21T08:15:38.514Z,462.7692
2023-05-21T08:16:40.284Z,463.6923
2023-05-21T08:17:42.043Z,468.2308
2023-05-21T08:18:43.842Z,455.1538
2023-05-21T08:19:45.665Z,459.0000
2023-05-21T08:20:47.504Z,475.0000
2023-05-21T08:21:51.343Z,481.0769
2023-05-21T08:22:51.162Z,482.3077
2023-05-21T08:23:53.006Z,481.0000
2023-05-21T08:24:54.811Z,478.7692
2023-05-21T08:25:56.670Z,478.2308
2023-05-21T08:26:58.513Z,477.8462
2023-05-21T08:28:00.311Z,478.5385
2023-05-21T08:29:02.163Z,479.6154
2023-05-21T08:30:03.984Z,479.3846
2023-05-21T08:31:05.822Z,476.7692
2023-05-21T08:32:07.788Z,472.6923
2023-05-21T08:33:09.527Z,455.1538
2023-05-21T08:34:11.321Z,469.3077
2023-05-21T08:35:13.182Z,452.4615
2023-05-21T08:36:15.141Z,463.7692
2023-05-21T08:37:16.805Z,470.9231
2023-05-21T08:38:18.653Z,475.8462
2023-05-21T08:39:20.490Z,477.4615
2023-05-21T08:40:22.325Z,477.1538
2023-05-21T08:41:24.160Z,476.3846
2023-05-21T08:42:36.385Z,477.9231
2023-05-21T08:43:30.953Z,476.2308
2023-05-21T08:44:31.480Z,474.9231
2023-05-21T08:45:33.048Z,474.2308
2023-05-21T08:46:34.649Z,475.3077
2023-05-21T08:47:36.251Z,476.7692
2023-05-21T08:48:37.695Z,476.4615
2023-05-21T08:49:46.754Z,476.5385
2023-05-21T08:50:40.824Z,470.6667
2023-05-21T08:51:42.488Z,438.6923
2023-05-21T08:52:44.326Z,456.0769
2023-05-21T08:53:46.130Z,441.2308
2023-05-21T08:54:47.949Z,467.9231
2023-05-21T08:55:51.697Z,466.6923
2023-05-21T08:56:59.427Z,471.0000
2023-05-21T08:57:53.454Z,477.5833
2023-05-21T08:58:55.367Z,476.9231
2023-05-21T08:59:57.126Z,476.8462
2023-05-21T09:00:59.008Z,477.7692
2023-05-21T09:02:00.858Z,477.2308
2023-05-21T09:03:02.672Z,477.9231
2023-05-21T09:04:18.957Z,473.3077
2023-05-21T09:05:08.338Z,471.3846
2023-05-21T09:06:08.892Z,471.5385
2023-05-21T09:07:10.502Z,470.0769
2023-05-21T09:08:12.019Z,454.9231
2023-05-21T09:09:13.645Z,465.2308
2023-05-21T09:10:15.480Z,435.6923
2023-05-21T09:11:17.309Z,463.4615
2023-05-21T09:12:19.166Z,457.7692
2023-05-21T09:13:20.995Z,462.6923
2023-05-21T09:14:22.848Z,465.3846
2023-05-21T09:15:24.659Z,468.5385
2023-05-21T09:16:26.498Z,469.6923
2023-05-21T09:17:28.333Z,469.9231
2023-05-21T09:18:30.134Z,469.7692
2023-05-21T09:19:32.044Z,468.7692
2023-05-21T09:20:33.842Z,468.9231
2023-05-21T09:21:35.646Z,471.6154
2023-05-21T09:22:37.489Z,471.6154
2023-05-21T09:23:39.313Z,472.0000
2023-05-21T09:24:41.158Z,458.3846
2023-05-21T09:25:42.973Z,454.0769
2023-05-21T09:26:44.815Z,429.5385
2023-05-21T09:27:46.660Z,457.0000
2023-05-21T09:28:48.497Z,446.3077
2023-05-21T09:29:50.335Z,468.2308
2023-05-21T09:30:52.158Z,470.1538
2023-05-21T09:31:54.105Z,466.9231
2023-05-21T09:32:55.914Z,465.4615
2023-05-21T09:33:57.668Z,463.3077
2023-05-21T09:34:59.496Z,462.9231
2023-05-21T09:36:01.323Z,464.0769
2023-05-21T09:37:04.990Z,464.5385
2023-05-21T09:38:05.015Z,464.8462
2023-05-21T09:39:06.832Z,462.3846
2023-05-21T09:40:08.660Z,462.8462
2023-05-21T09:41:10.500Z,462.7692
2023-05-21T09:42:12.338Z,454.5385
2023-05-21T09:43:14.184Z,455.1538
2023-05-21T09:44:16.023Z,434.2308
2023-05-21T09:45:17.876Z,424.3846
2023-05-21T09:46:19.718Z,458.0000
2023-05-21T09:47:21.578Z,452.1538
2023-05-21T09:48:23.359Z,464.5385
2023-05-21T09:49:25.246Z,465.6154
2023-05-21T09:50:27.016Z,464.4615
2023-05-21T09:51:28.872Z,462.9231
2023-05-21T09:52:30.718Z,463.0769
2023-05-21T09:53:32.546Z,464.2308
2023-05-21T09:54:34.379Z,464.3846
2023-05-21T09:55:36.213Z,461.8462
2023-05-21T09:56:38.056Z,461.3077
2023-05-21T09:57:39.870Z,463.8462
2023-05-21T09:58:41.732Z,464.6923
2023-05-21T09:59:51.084Z,458.4615
2023-05-21T10:00:45.637Z,448.5000
2023-05-21T10:01:47.294Z,442.3846
2023-05-21T10:02:49.125Z,447.7692
2023-05-21T10:03:50.934Z,427.9231
2023-05-21T10:04:52.764Z,453.4615
2023-05-21T10:05:54.588Z,459.3846
2023-05-21T10:06:56.403Z,462.7692
2023-05-21T10:07:58.246Z,463.3077
2023-05-21T10:09:00.842Z,462.1538
2023-05-21T10:10:01.935Z,461.5385
2023-05-21T10:11:03.758Z,460.6154
2023-05-21T10:12:05.596Z,460.6154
2023-05-21T10:13:07.441Z,460.4615
2023-05-21T10:14:09.299Z,463.5385
2023-05-21T10:15:11.106Z,464.8462
2023-05-21T10:16:12.978Z,465.0000
2023-05-21T10:17:14.761Z,456.8462
2023-05-21T10:18:16.619Z,435.5385
2023-05-21T10:19:18.495Z,441.4615
2023-05-21T10:20:20.270Z,429.8462
2023-05-21T10:21:22.090Z,451.8462
2023-05-21T10:22:23.934Z,442.0000
2023-05-21T10:23:25.772Z,454.4615
2023-05-21T10:24:27.619Z,458.9231
2023-05-21T10:25:29.421Z,459.8462
2023-05-21T10:26:31.259Z,460.0000
2023-05-21T10:27:33.148Z,459.2308
2023-05-21T10:28:34.946Z,461.1538
2023-05-21T10:29:36.797Z,460.8462
2023-05-21T10:30:38.862Z,458.6154
2023-05-21T10:31:40.451Z,457.7692
2023-05-21T10:32:42.358Z,458.4615
2023-05-21T10:33:44.129Z,459.4615
2023-05-21T10:34:45.976Z,463.0000
2023-05-21T10:35:47.799Z,435.0769
2023-05-21T10:36:49.607Z,432.9231
2023-05-21T10:37:51.443Z,449.0000
2023-05-21T10:38:53.334Z,428.6923
2023-05-21T10:39:55.141Z,458.3077
2023-05-21T10:40:56.955Z,457.3846
2023-05-21T10:41:59.309Z,459.7692
2023-05-21T10:43:00.622Z,457.3077
2023-05-21T10:44:02.448Z,456.4615
2023-05-21T10:45:04.355Z,457.8462
2023-05-21T10:46:06.200Z,458.6923
2023-05-21T10:47:07.972Z,458.0000
2023-05-21T10:48:09.832Z,458.6154
2023-05-21T10:49:11.637Z,459.6154
2023-05-21T10:50:13.473Z,458.6923
2023-05-21T10:51:15.288Z,458.6154
2023-05-21T10:52:17.122Z,446.3846
2023-05-21T10:53:18.975Z,444.1538
2023-05-21T10:54:20.805Z,440.6923
2023-05-21T10:55:22.693Z,425.2308
2023-05-21T10:56:24.461Z,446.1538
2023-05-21T10:57:26.319Z,446.4615
2023-05-21T10:58:30.048Z,453.5385
2023-05-21T10:59:29.982Z,456.6923
2023-05-21T11:00:31.833Z,454.6923
2023-05-21T11:01:33.686Z,457.6154
2023-05-21T11:02:43.124Z,459.7692
2023-05-21T11:03:38.092Z,463.0000
2023-05-21T11:04:39.143Z,461.6154
2023-05-21T11:05:40.988Z,461.8462
2023-05-21T11:06:42.810Z,458.3846
2023-05-21T11:07:44.661Z,457.6154
2023-05-21T11:08:46.480Z,457.3077
2023-05-21T11:09:48.326Z,454.7692
2023-05-21T11:10:50.159Z,438.1538
2023-05-21T11:11:51.988Z,438.8462
2023-05-21T11:12:53.804Z,447.5385
2023-05-21T11:13:55.656Z,439.0000
2023-05-21T11:14:57.487Z,453.0769
2023-05-21T11:15:59.409Z,445.6923
2023-05-21T11:17:01.219Z,454.5385
2023-05-21T11:18:03.029Z,457.1538
2023-05-21T11:19:04.854Z,460.0000
2023-05-21T11:20:06.628Z,459.8462
2023-05-21T11:21:08.473Z,459.5385
2023-05-21T11:22:10.322Z,462.7692
2023-05-21T11:23:12.130Z,459.6154
2023-05-21T11:24:13.974Z,459.6154
2023-05-21T11:25:15.797Z,459.0769
2023-05-21T11:26:17.635Z,457.5385
2023-05-21T11:27:19.491Z,455.3077
2023-05-21T11:28:21.291Z,444.6154
2023-05-21T11:29:23.128Z,431.4615
2023-05-21T11:30:24.959Z,441.0769
2023-05-21T11:31:26.939Z,415.4615
2023-05-21T11:32:28.746Z,431.0000
2023-05-21T11:33:30.465Z,452.7692
2023-05-21T11:34:32.291Z,449.0769
2023-05-21T11:35:34.138Z,452.9231
2023-05-21T11:36:36.230Z,452.3077
2023-05-21T11:37:37.887Z,453.0000
2023-05-21T11:38:39.760Z,455.4615
2023-05-21T11:39:41.550Z,454.0000
2023-05-21T11:40:43.372Z,453.0000
2023-05-21T11:41:45.259Z,453.6923
2023-05-21T11:42:47.069Z,454.8462
2023-05-21T11:43:48.916Z,455.9231
2023-05-21T11:44:50.736Z,451.7692
2023-05-21T11:45:52.564Z,433.4615
2023-05-21T11:46:54.427Z,424.6154
2023-05-21T11:47:56.336Z,423.3077
2023-05-21T11:48:58.101Z,432.6154
2023-05-21T11:49:59.926Z,442.4615
2023-05-21T11:51:01.735Z,448.5385
2023-05-21T11:52:03.632Z,451.6154
2023-05-21T11:53:05.409Z,452.6923
2023-05-21T11:54:07.240Z,450.1538
2023-05-21T11:55:16.600Z,451.3846
2023-05-21T11:56:10.918Z,461.2500
2023-05-21T11:57:12.759Z,455.7692
2023-05-21T11:58:14.581Z,452.8462
2023-05-21T11:59:18.705Z,455.7692
2023-05-21T12:00:18.275Z,457.8462
2023-05-21T12:01:20.098Z,456.3077
2023-05-21T12:02:21.976Z,443.8462
2023-05-21T12:03:23.859Z,439.3077
2023-05-21T12:04:25.595Z,436.3077
2023-05-21T12:05:27.453Z,407.9231